createdAt,value
2023-02-26T00:01:15.896Z,1.05
2023-02-26T00:03:44.513Z,0.95
2023-02-26T00:06:13.178Z,1.52
2023-02-26T00:08:41.782Z,1.05
2023-02-26T00:11:10.606Z,0.80
2023-02-26T00:13:39.927Z,1.00
2023-02-26T00:16:15.872Z,1.02
2023-02-26T00:18:44.980Z,0.88
2023-02-26T00:21:17.236Z,1.50
2023-02-26T00:23:46.120Z,0.90
2023-02-26T00:26:14.752Z,0.95
2023-02-26T00:28:43.949Z,0.82
2023-02-26T00:31:13.062Z,1.05
2023-02-26T00:33:45.107Z,1.10
2023-02-26T00:36:21.189Z,0.95
2023-02-26T00:38:58.630Z,1.00
2023-02-26T00:41:27.857Z,1.05
2023-02-26T00:43:56.872Z,1.00
2023-02-26T00:46:30.314Z,1.00
2023-02-26T00:49:03.792Z,1.00
2023-02-26T00:51:34.636Z,1.10
2023-02-26T00:54:06.291Z,0.90
2023-02-26T00:56:34.923Z,0.75
2023-02-26T00:59:03.524Z,0.80
2023-02-26T01:01:32.194Z,0.90
2023-02-26T01:04:02.802Z,1.23
2023-02-26T01:06:33.804Z,0.75
2023-02-26T01:09:06.725Z,1.00
2023-02-26T01:11:35.887Z,0.80
2023-02-26T01:14:05.075Z,0.80
2023-02-26T01:16:42.004Z,1.00
2023-02-26T01:19:17.717Z,0.90
2023-02-26T01:21:48.195Z,0.63
2023-02-26T01:24:17.916Z,1.00
2023-02-26T01:26:49.814Z,1.20
2023-02-26T01:29:18.920Z,0.90
2023-02-26T01:31:51.251Z,1.33
2023-02-26T01:34:23.572Z,1.45
2023-02-26T01:36:55.615Z,0.77
2023-02-26T01:39:29.124Z,0.70
2023-02-26T01:41:59.531Z,0.80
2023-02-26T01:44:29.020Z,0.70
2023-02-26T01:47:10.412Z,1.05
2023-02-26T01:49:41.010Z,0.90
2023-02-26T01:52:47.568Z,0.70
2023-02-26T01:55:16.418Z,0.80
2023-02-26T01:57:44.832Z,1.10
2023-02-26T02:00:14.339Z,0.80
2023-02-26T02:02:42.731Z,0.80
2023-02-26T02:05:16.750Z,0.75
2023-02-26T02:07:45.016Z,0.70
2023-02-26T02:10:13.531Z,0.70
2023-02-26T02:12:45.379Z,1.08
2023-02-26T02:15:16.859Z,0.70
2023-02-26T02:17:51.716Z,0.70
2023-02-26T02:21:01.869Z,0.85
2023-02-26T02:23:33.730Z,0.85
2023-02-26T02:26:38.732Z,1.25
2023-02-26T02:29:57.750Z,0.80
2023-02-26T02:32:29.766Z,0.85
2023-02-26T02:35:04.038Z,1.10
2023-02-26T02:37:37.503Z,1.08
2023-02-26T02:40:08.203Z,1.75
2023-02-26T02:42:39.560Z,1.00
2023-02-26T02:45:11.289Z,1.20
2023-02-26T02:47:42.950Z,1.05
2023-02-26T02:50:14.662Z,1.40
2023-02-26T02:52:45.446Z,1.30
2023-02-26T02:55:16.932Z,1.00
2023-02-26T02:57:49.361Z,0.85
2023-02-26T03:00:18.957Z,0.77
2023-02-26T03:02:53.552Z,1.10
2023-02-26T03:05:21.804Z,0.90
2023-02-26T03:07:52.740Z,1.33
2023-02-26T03:10:21.190Z,1.10
2023-02-26T03:12:49.601Z,1.05
2023-02-26T03:15:18.241Z,0.68
2023-02-26T03:17:57.556Z,0.75
2023-02-26T03:20:28.769Z,0.70
2023-02-26T03:23:06.272Z,1.10
2023-02-26T03:25:41.412Z,0.90
2023-02-26T03:28:19.816Z,0.70
2023-02-26T03:30:51.075Z,0.60
2023-02-26T03:33:24.349Z,0.98
2023-02-26T03:35:56.344Z,1.10
2023-02-26T03:38:36.261Z,0.60
2023-02-26T03:41:07.062Z,0.70
2023-02-26T03:43:38.481Z,1.00
2023-02-26T03:46:09.103Z,0.70
2023-02-26T03:48:38.775Z,1.30
2023-02-26T03:51:09.573Z,0.60
2023-02-26T03:53:44.416Z,0.70
2023-02-26T03:56:17.033Z,0.63
2023-02-26T03:58:45.376Z,0.80
2023-02-26T04:01:18.836Z,1.02
2023-02-26T04:03:51.530Z,1.00
2023-02-26T04:06:20.444Z,0.95
2023-02-26T04:08:48.908Z,1.02
2023-02-26T04:11:19.621Z,0.80
2023-02-26T04:13:48.179Z,0.80
2023-02-26T04:16:17.428Z,0.90
2023-02-26T04:18:45.797Z,1.00
2023-02-26T04:21:16.731Z,0.70
2023-02-26T04:23:45.047Z,0.70
2023-02-26T04:26:13.424Z,0.70
2023-02-26T04:28:41.782Z,1.15
2023-02-26T04:31:10.418Z,1.02
2023-02-26T04:33:38.911Z,0.70
2023-02-26T04:36:07.981Z,0.93
2023-02-26T04:38:37.655Z,0.70
2023-02-26T04:41:06.347Z,0.60
2023-02-26T04:43:34.584Z,1.15
2023-02-26T04:46:02.901Z,0.50
2023-02-26T04:48:31.174Z,0.70
2023-02-26T04:50:59.442Z,0.60
2023-02-26T04:53:27.781Z,0.65
2023-02-26T04:55:57.442Z,0.88
2023-02-26T04:58:25.698Z,0.70
2023-02-26T05:00:54.863Z,0.60
2023-02-26T05:03:23.370Z,0.70
2023-02-26T05:05:52.347Z,0.68
2023-02-26T05:08:20.589Z,0.70
2023-02-26T05:10:49.284Z,0.95
2023-02-26T05:13:18.941Z,1.00
2023-02-26T05:15:47.285Z,1.00
2023-02-26T05:18:15.578Z,0.90
2023-02-26T05:20:43.805Z,1.45
2023-02-26T05:23:12.114Z,1.10
2023-02-26T05:25:40.365Z,0.93
2023-02-26T05:28:08.619Z,0.80
2023-02-26T05:30:38.348Z,0.95
2023-02-26T05:33:06.689Z,0.60
2023-02-26T05:35:34.955Z,1.20
2023-02-26T05:38:03.221Z,0.80
2023-02-26T05:40:31.585Z,0.88
2023-02-26T05:43:00.097Z,0.70
2023-02-26T05:45:28.875Z,0.75
2023-02-26T05:47:58.536Z,0.70
2023-02-26T05:50:27.171Z,0.70
2023-02-26T05:52:55.474Z,0.77
2023-02-26T05:55:23.762Z,0.77
2023-02-26T05:57:52.047Z,0.60
2023-02-26T06:00:21.295Z,0.82
2023-02-26T06:02:49.678Z,0.60
2023-02-26T06:05:19.709Z,1.00
2023-02-26T06:07:48.016Z,0.60
2023-02-26T06:10:16.249Z,1.20
2023-02-26T06:12:44.550Z,0.60
2023-02-26T06:15:13.121Z,0.88
2023-02-26T06:17:41.454Z,0.80
2023-02-26T06:20:12.205Z,0.82
2023-02-26T06:22:41.945Z,0.80
2023-02-26T06:25:10.955Z,0.75
2023-02-26T06:27:39.211Z,0.80
2023-02-26T06:30:09.085Z,0.80
2023-02-26T06:32:37.451Z,0.80
2023-02-26T06:35:07.125Z,0.70
2023-02-26T06:37:35.775Z,1.10
2023-02-26T06:40:06.577Z,0.75
2023-02-26T06:42:34.894Z,0.60
2023-02-26T06:45:03.227Z,0.70
2023-02-26T06:47:31.536Z,0.60
2023-02-26T06:49:59.814Z,1.30
2023-02-26T06:52:28.081Z,0.70
2023-02-26T06:54:56.347Z,0.77
2023-02-26T06:57:25.970Z,0.60
2023-02-26T06:59:54.323Z,0.70
2023-02-26T07:02:23.375Z,0.50
2023-02-26T07:04:51.696Z,0.70
2023-02-26T07:07:19.972Z,1.05
2023-02-26T07:09:48.239Z,1.17
2023-02-26T07:12:16.631Z,0.90
2023-02-26T07:14:46.755Z,1.00
2023-02-26T07:17:20.453Z,0.80
2023-02-26T07:19:49.249Z,0.85
2023-02-26T07:22:18.208Z,1.02
2023-02-26T07:24:47.346Z,0.90
2023-02-26T07:27:15.620Z,0.73
2023-02-26T07:29:45.281Z,0.82
2023-02-26T07:32:13.582Z,0.80
2023-02-26T07:34:42.374Z,0.73
2023-02-26T07:37:10.602Z,0.80
2023-02-26T07:39:38.891Z,1.02
2023-02-26T07:42:07.232Z,0.63
2023-02-26T07:44:35.519Z,0.95
2023-02-26T07:47:05.354Z,0.93
2023-02-26T07:49:34.141Z,0.90
2023-02-26T07:52:02.537Z,0.75
2023-02-26T07:54:30.800Z,0.80
2023-02-26T07:56:59.089Z,0.80
2023-02-26T07:59:27.445Z,0.80
2023-02-26T08:01:55.811Z,1.15
2023-02-26T08:04:25.804Z,1.40
2023-02-26T08:06:54.896Z,0.93
2023-02-26T08:09:23.248Z,1.10
2023-02-26T08:11:51.565Z,1.10
2023-02-26T08:14:19.886Z,1.77
2023-02-26T08:16:48.106Z,0.90
2023-02-26T08:19:16.389Z,1.27
2023-02-26T08:21:46.378Z,1.13
2023-02-26T08:24:14.916Z,0.77
2023-02-26T08:26:43.236Z,0.60
2023-02-26T08:29:11.499Z,0.98
2023-02-26T08:31:39.845Z,0.90
2023-02-26T08:34:08.206Z,0.90
2023-02-26T08:36:36.468Z,0.90
2023-02-26T08:39:06.153Z,0.80
2023-02-26T08:41:36.197Z,1.02
2023-02-26T08:44:04.470Z,0.98
2023-02-26T08:46:32.784Z,0.80
2023-02-26T08:49:01.092Z,0.80
2023-02-26T08:51:29.600Z,0.73
2023-02-26T08:53:57.905Z,0.80
2023-02-26T08:56:27.881Z,1.27
2023-02-26T08:58:56.323Z,0.90
2023-02-26T09:01:25.001Z,0.90
2023-02-26T09:03:53.549Z,0.88
2023-02-26T09:06:21.928Z,0.60
2023-02-26T09:08:50.411Z,0.82
2023-02-26T09:11:18.700Z,0.70
2023-02-26T09:13:48.326Z,0.90
2023-02-26T09:16:16.718Z,1.08
2023-02-26T09:18:45.210Z,0.90
2023-02-26T09:21:13.419Z,1.00
2023-02-26T09:23:41.668Z,0.77
2023-02-26T09:26:10.142Z,0.60
2023-02-26T09:28:38.481Z,0.70
2023-02-26T09:31:08.517Z,0.90
2023-02-26T09:33:37.013Z,1.55
2023-02-26T09:36:05.991Z,1.02
2023-02-26T09:38:35.840Z,0.85
2023-02-26T09:41:06.076Z,0.90
2023-02-26T09:43:59.629Z,0.70
2023-02-26T09:46:35.002Z,0.88
2023-02-26T09:49:11.204Z,0.90
2023-02-26T09:51:39.539Z,1.00
2023-02-26T09:54:15.656Z,1.15
2023-02-26T09:56:43.991Z,0.60
2023-02-26T09:59:12.346Z,0.60
2023-02-26T10:01:46.429Z,0.70
2023-02-26T10:04:23.074Z,0.70
2023-02-26T10:07:04.457Z,0.90
2023-02-26T10:09:43.598Z,0.80
2023-02-26T10:12:14.267Z,0.80
2023-02-26T10:14:46.838Z,0.52
2023-02-26T10:17:22.216Z,0.82
2023-02-26T10:19:54.061Z,0.50
2023-02-26T10:22:27.531Z,0.60
2023-02-26T10:25:01.795Z,0.80
2023-02-26T10:27:44.340Z,1.08
2023-02-26T10:30:17.547Z,0.80
2023-02-26T10:32:55.147Z,0.70
2023-02-26T10:35:25.911Z,0.60
2023-02-26T10:37:58.885Z,0.50
2023-02-26T10:40:31.037Z,0.60
2023-02-26T10:43:01.346Z,0.60
2023-02-26T10:45:38.654Z,0.70
2023-02-26T10:48:25.000Z,1.33
2023-02-26T10:50:55.104Z,0.80
2023-02-26T10:53:23.658Z,1.25
2023-02-26T10:55:53.830Z,0.73
2023-02-26T10:58:24.819Z,0.80
2023-02-26T11:00:55.352Z,0.68
2023-02-26T11:03:31.877Z,0.90
2023-02-26T11:06:00.222Z,0.80
2023-02-26T11:08:30.155Z,0.63
2023-02-26T11:10:59.799Z,0.90
2023-02-26T11:13:30.134Z,0.70
2023-02-26T11:15:59.744Z,0.75
2023-02-26T11:18:31.553Z,2.20
2023-02-26T11:21:01.125Z,1.05
2023-02-26T11:23:32.015Z,0.83
2023-02-26T11:26:05.449Z,0.70
2023-02-26T11:28:36.856Z,1.10
2023-02-26T11:31:07.433Z,0.80
2023-02-26T11:33:40.165Z,2.10
2023-02-26T11:36:12.754Z,0.80
2023-02-26T11:38:41.264Z,0.90
2023-02-26T11:41:09.586Z,1.10
2023-02-26T11:43:44.118Z,1.00
2023-02-26T11:46:13.370Z,0.93
2023-02-26T11:48:44.857Z,0.95
2023-02-26T11:51:16.676Z,0.60
2023-02-26T11:53:50.305Z,0.90
2023-02-26T11:56:26.993Z,0.82
2023-02-26T11:58:56.394Z,0.80
2023-02-26T12:01:28.794Z,0.70
2023-02-26T12:04:00.787Z,0.68
2023-02-26T12:06:29.299Z,0.63
2023-02-26T12:08:57.613Z,0.70
2023-02-26T12:11:56.564Z,0.80
2023-02-26T12:14:40.044Z,0.87
2023-02-26T12:17:22.814Z,1.07
2023-02-26T12:19:56.454Z,0.80
2023-02-26T12:22:49.874Z,1.00
2023-02-26T12:25:44.282Z,0.70
2023-02-26T12:28:29.604Z,0.60
2023-02-26T12:31:17.978Z,0.80
2023-02-26T12:33:53.290Z,0.70
2023-02-26T12:36:46.475Z,0.90
2023-02-26T12:39:32.030Z,0.70
2023-02-26T12:42:13.439Z,0.60
2023-02-26T12:44:58.564Z,0.57
2023-02-26T12:47:44.979Z,0.88
2023-02-26T12:50:28.279Z,0.65
2023-02-26T12:53:40.688Z,0.60
2023-02-26T12:56:42.391Z,0.60
2023-02-26T12:59:28.102Z,0.50
2023-02-26T13:02:16.652Z,0.70
2023-02-26T13:05:13.493Z,0.75
2023-02-26T13:07:50.973Z,0.65
2023-02-26T13:10:29.232Z,0.60
2023-02-26T13:13:12.303Z,0.60
2023-02-26T13:15:53.282Z,0.70
2023-02-26T13:18:30.237Z,1.00
2023-02-26T13:21:01.578Z,1.23
2023-02-26T13:23:34.968Z,1.00
2023-02-26T13:26:08.351Z,1.13
2023-02-26T13:28:41.718Z,0.70
2023-02-26T13:31:13.505Z,0.80
2023-02-26T13:33:41.851Z,0.70
2023-02-26T13:36:10.470Z,0.70
2023-02-26T13:38:48.251Z,0.70
2023-02-26T13:41:22.708Z,0.80
2023-02-26T13:44:13.372Z,0.80
2023-02-26T13:46:53.445Z,0.90
2023-02-26T13:49:24.318Z,0.80
2023-02-26T13:51:54.834Z,0.60
2023-02-26T13:54:43.665Z,0.90
2023-02-26T13:57:35.276Z,0.83
2023-02-26T14:00:12.986Z,0.80
2023-02-26T14:02:53.756Z,1.10
2023-02-26T14:05:56.545Z,0.75
2023-02-26T14:08:44.095Z,0.70
2023-02-26T14:11:48.693Z,0.80
2023-02-26T14:14:32.608Z,0.77
2023-02-26T14:17:31.863Z,0.75
2023-02-26T14:20:29.152Z,0.73
2023-02-26T14:23:15.365Z,0.88
2023-02-26T14:25:47.998Z,0.60
2023-02-26T14:28:45.314Z,0.75
2023-02-26T14:31:22.276Z,0.70
2023-02-26T14:34:09.844Z,0.70
2023-02-26T14:36:46.635Z,0.60
2023-02-26T14:39:26.921Z,0.68
2023-02-26T14:42:00.286Z,0.75
2023-02-26T14:44:30.315Z,1.33
2023-02-26T14:47:00.398Z,0.80
2023-02-26T14:49:32.398Z,0.70
2023-02-26T14:52:19.463Z,1.00
2023-02-26T14:55:15.235Z,0.90
2023-02-26T14:57:48.417Z,1.30
2023-02-26T15:00:30.120Z,1.00
2023-02-26T15:03:20.233Z,0.88
2023-02-26T15:05:59.827Z,0.70
2023-02-26T15:08:45.681Z,0.90
2023-02-26T15:11:28.110Z,1.00
2023-02-26T15:14:22.570Z,1.30
2023-02-26T15:17:00.165Z,0.75
2023-02-26T15:19:42.360Z,0.82
2023-02-26T15:22:28.565Z,0.80
2023-02-26T15:24:56.868Z,0.80
2023-02-26T15:27:25.163Z,0.60
2023-02-26T15:29:53.725Z,0.80
2023-02-26T15:32:26.736Z,0.63
2023-02-26T15:35:00.908Z,0.60
2023-02-26T15:37:33.481Z,0.60
2023-02-26T15:40:05.058Z,0.90
2023-02-26T15:42:38.454Z,0.60
2023-02-26T15:45:11.317Z,0.60
2023-02-26T15:47:39.821Z,0.70
2023-02-26T15:50:14.602Z,0.60
2023-02-26T15:52:42.871Z,0.60
2023-02-26T15:55:16.650Z,0.85
2023-02-26T15:57:44.957Z,0.95
2023-02-26T16:00:17.746Z,1.70
2023-02-26T16:02:46.431Z,0.85
2023-02-26T16:05:21.390Z,1.40
2023-02-26T16:07:50.441Z,0.80
2023-02-26T16:10:28.046Z,0.70
2023-02-26T16:12:56.350Z,1.02
2023-02-26T16:15:30.509Z,0.70
2023-02-26T16:17:58.806Z,1.08
2023-02-26T16:20:30.062Z,1.00
2023-02-26T16:23:00.281Z,1.00
2023-02-26T16:25:32.213Z,1.10
2023-02-26T16:28:02.434Z,1.10
2023-02-26T16:30:35.820Z,1.35
2023-02-26T16:33:04.800Z,1.00
2023-02-26T16:35:38.549Z,0.98
2023-02-26T16:38:13.899Z,0.80
2023-02-26T16:40:44.371Z,0.80
2023-02-26T16:43:36.627Z,1.00
2023-02-26T16:46:05.922Z,0.85
2023-02-26T16:48:38.828Z,1.17
2023-02-26T16:51:16.160Z,0.95
2023-02-26T16:53:47.491Z,2.97
2023-02-26T16:56:19.389Z,1.55
2023-02-26T16:58:49.997Z,0.80
2023-02-26T17:01:19.617Z,1.50
2023-02-26T17:03:49.397Z,1.73
2023-02-26T17:06:20.386Z,1.45
2023-02-26T17:08:51.391Z,1.40
2023-02-26T17:11:26.827Z,1.30
2023-02-26T17:14:19.083Z,1.30
2023-02-26T17:16:47.803Z,1.33
2023-02-26T17:19:16.103Z,2.97
2023-02-26T17:21:47.955Z,1.00
2023-02-26T17:24:19.593Z,0.93
2023-02-26T17:26:48.212Z,3.35
2023-02-26T17:29:20.708Z,1.75
2023-02-26T17:31:49.137Z,0.80
2023-02-26T17:34:17.460Z,1.17
2023-02-26T17:36:47.113Z,0.85
2023-02-26T17:39:15.530Z,1.25
2023-02-26T17:41:44.998Z,1.70
2023-02-26T17:44:13.305Z,0.90
2023-02-26T17:46:41.875Z,1.75
2023-02-26T17:49:11.895Z,4.18
2023-02-26T17:51:40.208Z,1.73
2023-02-26T17:54:09.888Z,1.30
2023-02-26T17:56:38.252Z,1.60
2023-02-26T17:59:07.155Z,3.05
2023-02-26T18:01:35.499Z,2.80
2023-02-26T18:04:04.289Z,2.30
2023-02-26T18:06:34.517Z,1.90
2023-02-26T18:09:04.384Z,1.27
2023-02-26T18:11:34.193Z,1.75
2023-02-26T18:14:03.313Z,1.10
2023-02-26T18:16:34.519Z,1.42
2023-02-26T18:19:02.882Z,1.38
2023-02-26T18:21:31.263Z,1.40
2023-02-26T18:24:01.010Z,1.70
2023-02-26T18:26:31.957Z,1.40
2023-02-26T18:29:01.619Z,1.98
2023-02-26T18:31:34.586Z,1.52
2023-02-26T18:34:03.673Z,1.30
2023-02-26T18:36:39.666Z,1.30
2023-02-26T18:39:09.216Z,1.67
2023-02-26T18:41:38.165Z,1.52
2023-02-26T18:44:07.855Z,1.48
2023-02-26T18:46:40.150Z,1.73
2023-02-26T18:49:08.465Z,1.60
2023-02-26T18:51:36.782Z,1.10
2023-02-26T18:54:05.381Z,1.20
2023-02-26T18:56:34.020Z,1.48
2023-02-26T18:59:02.686Z,2.00
2023-02-26T19:01:32.567Z,3.33
2023-02-26T19:04:00.972Z,2.80
2023-02-26T19:06:29.312Z,3.17
2023-02-26T19:09:02.545Z,2.03
2023-02-26T19:11:30.955Z,2.00
2023-02-26T19:13:59.272Z,2.05
2023-02-26T19:16:28.585Z,2.05
2023-02-26T19:18:59.876Z,1.98
2023-02-26T19:21:28.867Z,1.52
2023-02-26T19:23:57.069Z,1.63
2023-02-26T19:26:25.304Z,2.17
2023-02-26T19:28:53.767Z,2.33
2023-02-26T19:31:22.301Z,2.10
2023-02-26T19:33:50.635Z,2.15
2023-02-26T19:36:21.922Z,2.25
2023-02-26T19:38:50.565Z,2.70
2023-02-26T19:41:19.869Z,1.95
2023-02-26T19:43:48.401Z,2.10
2023-02-26T19:46:16.702Z,2.03
2023-02-26T19:48:44.988Z,1.73
2023-02-26T19:51:13.294Z,2.38
2023-02-26T19:53:42.992Z,2.17
2023-02-26T19:56:11.621Z,1.80
2023-02-26T19:58:39.950Z,1.70
2023-02-26T20:01:08.257Z,2.00
2023-02-26T20:03:36.645Z,2.60
2023-02-26T20:06:08.264Z,2.92
2023-02-26T20:08:36.584Z,2.45
2023-02-26T20:11:06.490Z,2.25
2023-02-26T20:13:35.424Z,3.05
2023-02-26T20:16:04.221Z,2.40
2023-02-26T20:18:32.861Z,2.50
2023-02-26T20:21:01.283Z,3.55
2023-02-26T20:23:29.602Z,4.53
2023-02-26T20:25:58.121Z,4.70
2023-02-26T20:28:27.921Z,4.60
2023-02-26T20:30:56.295Z,3.60
2023-02-26T20:33:25.118Z,3.55
2023-02-26T20:35:54.290Z,3.65
2023-02-26T20:38:23.594Z,3.22
2023-02-26T20:40:52.365Z,2.63
2023-02-26T20:43:20.658Z,2.90
2023-02-26T20:45:50.446Z,2.55
2023-02-26T20:48:19.075Z,2.45
2023-02-26T20:50:47.443Z,2.83
2023-02-26T20:53:15.764Z,2.13
2023-02-26T20:55:44.049Z,2.40
2023-02-26T20:58:12.472Z,2.22
2023-02-26T21:00:40.926Z,2.13
2023-02-26T21:03:10.686Z,4.28
2023-02-26T21:05:39.972Z,2.28
2023-02-26T21:08:10.444Z,2.10
2023-02-26T21:10:41.627Z,2.15
2023-02-26T21:13:10.126Z,1.58
2023-02-26T21:15:38.446Z,2.30
2023-02-26T21:18:06.908Z,2.28
2023-02-26T21:20:36.909Z,2.50
2023-02-26T21:23:05.235Z,2.03
2023-02-26T21:25:33.607Z,1.55
2023-02-26T21:28:02.037Z,2.25
2023-02-26T21:30:30.540Z,2.67
2023-02-26T21:32:58.877Z,3.75
2023-02-26T21:35:27.457Z,6.47
2023-02-26T21:37:57.272Z,4.05
2023-02-26T21:40:26.277Z,2.80
2023-02-26T21:42:54.598Z,1.83
2023-02-26T21:45:22.853Z,2.17
2023-02-26T21:47:51.173Z,1.90
2023-02-26T21:50:19.712Z,1.83
2023-02-26T21:52:48.034Z,2.03
2023-02-26T21:55:18.108Z,1.88
2023-02-26T21:57:46.413Z,1.95
2023-02-26T22:00:17.541Z,2.00
2023-02-26T22:02:45.964Z,2.25
2023-02-26T22:05:14.348Z,2.05
2023-02-26T22:07:43.055Z,2.72
2023-02-26T22:10:13.139Z,2.55
2023-02-26T22:12:42.860Z,2.30
2023-02-26T22:15:11.636Z,1.95
2023-02-26T22:17:39.902Z,2.05
2023-02-26T22:20:11.176Z,2.50
2023-02-26T22:22:39.457Z,1.95
2023-02-26T22:25:08.731Z,2.00
2023-02-26T22:27:37.192Z,1.70
2023-02-26T22:30:08.421Z,2.00
2023-02-26T22:32:36.652Z,2.03
2023-02-26T22:35:05.576Z,1.92
2023-02-26T22:37:33.931Z,2.00
2023-02-26T22:40:03.717Z,1.90
2023-02-26T22:42:32.007Z,2.35
2023-02-26T22:45:00.318Z,2.83
2023-02-26T22:47:30.004Z,3.25
2023-02-26T22:49:58.306Z,3.25
2023-02-26T22:52:26.703Z,3.28
2023-02-26T22:54:55.017Z,2.92
2023-02-26T22:57:23.347Z,3.17
2023-02-26T22:59:52.167Z,3.28
2023-02-26T23:02:20.450Z,3.08
2023-02-26T23:04:50.044Z,2.63
2023-02-26T23:07:18.505Z,3.25
2023-02-26T23:09:46.738Z,3.13
2023-02-26T23:12:15.067Z,3.00
2023-02-26T23:14:52.398Z,2.95
2023-02-26T23:17:20.657Z,3.75
2023-02-26T23:19:50.569Z,2.72
2023-02-26T23:22:21.134Z,2.95
2023-02-26T23:24:50.189Z,3.10
2023-02-26T23:27:18.588Z,3.00
2023-02-26T23:29:46.986Z,2.53
2023-02-26T23:32:15.477Z,2.58
2023-02-26T23:34:43.934Z,3.17
2023-02-26T23:37:13.580Z,3.20
2023-02-26T23:39:42.000Z,2.95
2023-02-26T23:42:10.288Z,2.80
2023-02-26T23:44:38.696Z,3.40
2023-02-26T23:47:07.207Z,3.40
2023-02-26T23:49:35.510Z,3.38
2023-02-26T23:52:03.935Z,3.45
2023-02-26T23:54:33.760Z,3.53
2023-02-26T23:57:02.073Z,3.25
2023-02-26T23:59:30.408Z,3.60
